Terminal Aerodrome Forecast
Issued by NWS Spokane, WA

Home | Current Version | Previous Version | Text Only | Print | Product List | Glossary On
Versions: 1 2 3 4 5 6 7 8 9 10 11 12 13 14 15 16 17 18 19 20 21 22 23 24 25 26 27 28 29 30 31 32 33 34 35 36 37
000
FTUS46 KOTX 030648 AAA
TAFGEG
TAF AMD
KGEG 030648Z 0307/0406 04006KT P6SM -SHSN BKN040 OVC060
     FM030830 03008KT P6SM SCT060 BKN250
     FM040000 03003KT P6SM FEW040=

USA.gov is the U.S. government's official web portal to all federal, state and local government web resources and services.